createdAt,value
2018-12-22T00:00:45.884Z,85.00
2018-12-22T00:03:13.526Z,85.80
2018-12-22T00:05:40.990Z,85.10
2018-12-22T00:08:08.536Z,85.00
2018-12-22T00:10:36.049Z,85.10
2018-12-22T00:13:03.729Z,85.00
2018-12-22T00:15:31.274Z,85.20
2018-12-22T00:17:58.726Z,85.40
2018-12-22T00:20:26.132Z,85.60
2018-12-22T00:22:53.652Z,85.60
2018-12-22T00:25:21.178Z,85.70
2018-12-22T00:27:48.680Z,85.60
2018-12-22T00:30:16.139Z,85.40
2018-12-22T00:32:43.642Z,85.50
2018-12-22T00:35:11.199Z,85.70
2018-12-22T00:37:38.631Z,85.80
2018-12-22T00:40:06.289Z,86.10
2018-12-22T00:42:33.785Z,86.50
2018-12-22T00:45:01.304Z,87.10
2018-12-22T00:47:28.816Z,87.70
2018-12-22T00:49:56.384Z,88.00
2018-12-22T00:52:23.828Z,88.50
2018-12-22T00:54:51.430Z,88.60
2018-12-22T00:57:18.971Z,88.80
2018-12-22T00:59:46.443Z,89.00
2018-12-22T01:02:13.975Z,89.90
2018-12-22T01:04:41.409Z,89.40
2018-12-22T01:07:08.873Z,89.30
2018-12-22T01:09:36.334Z,89.30
2018-12-22T01:12:03.874Z,89.30
2018-12-22T01:14:31.404Z,89.30
2018-12-22T01:16:58.888Z,89.20
2018-12-22T01:19:26.360Z,89.10
2018-12-22T01:21:53.835Z,89.20
2018-12-22T01:24:21.406Z,89.30
2018-12-22T01:26:48.886Z,89.50
2018-12-22T01:29:16.422Z,89.70
2018-12-22T01:31:43.918Z,89.60
2018-12-22T01:34:11.430Z,89.70
2018-12-22T01:36:38.920Z,89.50
2018-12-22T01:39:06.334Z,89.40
2018-12-22T01:41:34.035Z,89.30
2018-12-22T01:44:01.618Z,90.20
2018-12-22T01:46:29.014Z,89.60
2018-12-22T01:48:56.500Z,89.50
2018-12-22T01:51:24.195Z,89.50
2018-12-22T01:53:51.654Z,89.30
2018-12-22T01:56:19.103Z,89.40
2018-12-22T01:58:47.901Z,89.30
2018-12-22T02:01:15.862Z,89.20
2018-12-22T02:03:43.310Z,89.30
2018-12-22T02:06:10.763Z,89.10
2018-12-22T02:08:38.280Z,88.90
2018-12-22T02:11:05.741Z,88.80
2018-12-22T02:13:33.280Z,88.50
2018-12-22T02:16:00.703Z,88.40
2018-12-22T02:18:28.101Z,88.30
2018-12-22T02:20:55.651Z,87.60
2018-12-22T02:23:23.239Z,87.20
2018-12-22T02:25:50.963Z,86.50
2018-12-22T02:28:18.476Z,86.40
2018-12-22T02:30:45.917Z,86.10
2018-12-22T02:33:13.420Z,85.30
2018-12-22T02:35:41.060Z,84.30
2018-12-22T02:38:08.434Z,83.70
2018-12-22T02:40:36.054Z,82.90
2018-12-22T02:43:03.571Z,82.90
2018-12-22T02:45:31.104Z,82.90
2018-12-22T02:47:58.481Z,83.30
2018-12-22T02:50:26.002Z,83.60
2018-12-22T02:52:53.474Z,83.50
2018-12-22T02:55:20.950Z,83.70
2018-12-22T02:57:48.389Z,83.30
2018-12-22T03:00:15.916Z,82.60
2018-12-22T03:02:43.431Z,80.40
2018-12-22T03:05:11.171Z,79.80
2018-12-22T03:07:38.689Z,79.20
2018-12-22T03:10:06.333Z,78.10
2018-12-22T03:12:33.862Z,77.50
2018-12-22T03:15:01.434Z,78.80
2018-12-22T03:17:28.941Z,79.30
2018-12-22T03:19:56.394Z,79.40
2018-12-22T03:22:23.980Z,76.10
2018-12-22T03:24:51.452Z,74.50
2018-12-22T03:27:19.908Z,74.30
2018-12-22T03:29:47.351Z,73.80
2018-12-22T03:32:14.926Z,76.10
2018-12-22T03:34:42.404Z,77.90
2018-12-22T03:37:09.931Z,79.10
2018-12-22T03:39:37.383Z,80.20
2018-12-22T03:42:04.976Z,80.60
2018-12-22T03:44:32.409Z,80.90
2018-12-22T03:46:59.943Z,79.80
2018-12-22T03:49:27.482Z,78.80
2018-12-22T03:51:54.956Z,78.40
2018-12-22T03:54:22.434Z,77.00
2018-12-22T03:56:49.845Z,76.40
2018-12-22T03:59:24.734Z,74.50
2018-12-22T04:01:46.906Z,73.50
2018-12-22T04:04:14.363Z,71.00
2018-12-22T04:06:41.922Z,70.20
2018-12-22T04:09:09.500Z,69.30
2018-12-22T04:11:36.936Z,69.30
2018-12-22T04:14:04.491Z,68.30
2018-12-22T04:16:32.048Z,69.10
2018-12-22T04:18:59.561Z,67.80
2018-12-22T04:21:27.044Z,68.30
2018-12-22T04:23:54.582Z,68.10
2018-12-22T04:26:22.151Z,67.00
2018-12-22T04:28:49.604Z,65.00
2018-12-22T04:31:17.064Z,66.10
2018-12-22T04:33:44.464Z,64.30
2018-12-22T04:36:11.988Z,63.80
2018-12-22T04:38:39.465Z,63.00
2018-12-22T04:41:06.982Z,63.10
2018-12-22T04:43:34.562Z,62.40
2018-12-22T04:46:02.054Z,62.20
2018-12-22T04:48:29.575Z,62.30
2018-12-22T04:50:57.168Z,61.80
2018-12-22T04:53:24.695Z,62.30
2018-12-22T04:55:52.187Z,62.10
2018-12-22T04:58:19.871Z,61.50
2018-12-22T05:00:47.326Z,61.00
2018-12-22T05:03:14.820Z,61.60
2018-12-22T05:05:42.266Z,60.00
2018-12-22T05:08:10.859Z,61.20
2018-12-22T05:10:38.384Z,59.10
2018-12-22T05:13:05.889Z,59.90
2018-12-22T05:15:33.399Z,60.50
2018-12-22T05:18:00.919Z,58.70
2018-12-22T05:20:28.501Z,59.60
2018-12-22T05:22:55.975Z,59.80
2018-12-22T05:25:23.676Z,59.60
2018-12-22T05:27:51.083Z,59.70
2018-12-22T05:30:18.579Z,60.00
2018-12-22T05:32:53.023Z,59.80
2018-12-22T05:35:20.558Z,59.60
2018-12-22T05:37:48.013Z,60.30
2018-12-22T05:40:15.575Z,60.10
2018-12-22T05:42:43.022Z,60.00
2018-12-22T05:45:10.487Z,60.00
2018-12-22T05:47:38.120Z,60.20
2018-12-22T05:50:05.948Z,60.10
2018-12-22T05:52:33.488Z,59.60
2018-12-22T05:55:00.986Z,59.70
2018-12-22T05:57:28.510Z,59.60
2018-12-22T06:00:00.390Z,59.60
2018-12-22T06:02:25.546Z,60.20
2018-12-22T06:04:53.119Z,60.40
2018-12-22T06:07:20.522Z,60.60
2018-12-22T06:09:48.182Z,61.10
2018-12-22T06:12:15.691Z,60.20
2018-12-22T06:14:43.220Z,60.60
2018-12-22T06:17:10.763Z,61.10
2018-12-22T06:19:38.273Z,61.40
2018-12-22T06:22:05.781Z,61.40
2018-12-22T06:24:33.244Z,61.50
2018-12-22T06:27:00.780Z,61.30
2018-12-22T06:29:28.254Z,61.50
2018-12-22T06:31:55.693Z,61.70
2018-12-22T06:34:23.225Z,61.70
2018-12-22T06:36:50.679Z,61.90
2018-12-22T06:39:18.372Z,62.60
2018-12-22T06:41:45.773Z,63.70
2018-12-22T06:44:13.238Z,66.00
2018-12-22T06:46:40.747Z,67.60
2018-12-22T06:49:08.337Z,68.90
2018-12-22T06:51:35.758Z,68.40
2018-12-22T06:54:03.367Z,68.50
2018-12-22T06:56:30.809Z,67.40
2018-12-22T06:58:58.320Z,67.70
2018-12-22T07:01:25.742Z,68.00
2018-12-22T07:03:53.245Z,66.80
2018-12-22T07:06:20.700Z,66.80
2018-12-22T07:08:48.174Z,66.30
2018-12-22T07:11:15.581Z,65.20
2018-12-22T07:13:43.252Z,65.20
2018-12-22T07:16:10.670Z,64.70
2018-12-22T07:18:38.045Z,64.40
2018-12-22T07:21:05.581Z,65.10
2018-12-22T07:23:33.073Z,64.80
2018-12-22T07:26:00.482Z,64.80
2018-12-22T07:28:27.938Z,64.70
2018-12-22T07:30:55.425Z,65.00
2018-12-22T07:33:22.914Z,65.10
2018-12-22T07:35:50.381Z,64.70
2018-12-22T07:38:17.873Z,64.40
2018-12-22T07:40:45.466Z,64.90
2018-12-22T07:43:12.879Z,64.70
2018-12-22T07:45:40.383Z,64.30
2018-12-22T07:48:07.778Z,64.10
2018-12-22T07:50:35.271Z,64.00
2018-12-22T07:53:02.690Z,63.30
2018-12-22T07:55:30.144Z,62.80
2018-12-22T07:57:59.430Z,63.40
2018-12-22T08:00:34.624Z,62.80
2018-12-22T08:02:56.812Z,62.60
2018-12-22T08:05:24.358Z,62.80
2018-12-22T08:07:51.873Z,62.70
2018-12-22T08:10:19.296Z,62.80
2018-12-22T08:12:46.920Z,62.80
2018-12-22T08:15:14.452Z,61.40
2018-12-22T08:17:41.950Z,61.10
2018-12-22T08:20:09.541Z,61.10
2018-12-22T08:22:37.106Z,61.20
2018-12-22T08:25:05.102Z,61.70
2018-12-22T08:27:32.590Z,61.10
2018-12-22T08:30:00.094Z,60.00
2018-12-22T08:32:27.702Z,61.50
2018-12-22T08:34:56.303Z,60.60
2018-12-22T08:37:23.777Z,60.20
2018-12-22T08:39:51.281Z,60.30
2018-12-22T08:42:18.777Z,60.80
2018-12-22T08:44:46.242Z,63.30
2018-12-22T08:47:13.744Z,64.30
2018-12-22T08:49:41.264Z,67.50
2018-12-22T08:52:08.726Z,67.50
2018-12-22T08:54:36.275Z,68.40
2018-12-22T08:57:03.935Z,68.60
2018-12-22T08:59:31.450Z,69.80
2018-12-22T09:01:58.952Z,71.00
2018-12-22T09:04:26.541Z,73.20
2018-12-22T09:06:54.047Z,74.60
2018-12-22T09:09:22.200Z,74.60
2018-12-22T09:11:49.695Z,74.40
2018-12-22T09:14:17.339Z,74.80
2018-12-22T09:16:44.755Z,74.40
2018-12-22T09:19:12.294Z,75.20
2018-12-22T09:21:39.848Z,75.50
2018-12-22T09:24:07.395Z,75.50
2018-12-22T09:26:35.035Z,75.20
2018-12-22T09:29:02.557Z,75.10
2018-12-22T09:31:30.026Z,75.20
2018-12-22T09:33:57.572Z,75.00
2018-12-22T09:36:25.195Z,73.80
2018-12-22T09:38:52.643Z,73.50
2018-12-22T09:41:20.103Z,73.10
2018-12-22T09:43:47.589Z,72.70
2018-12-22T09:46:15.035Z,72.90
2018-12-22T09:48:42.548Z,72.80
2018-12-22T09:51:09.972Z,73.00
2018-12-22T09:53:37.474Z,72.80
2018-12-22T09:56:05.025Z,72.80
2018-12-22T09:58:32.716Z,72.30
2018-12-22T10:01:09.104Z,72.60
2018-12-22T10:03:30.211Z,73.50
2018-12-22T10:05:57.730Z,73.00
2018-12-22T10:08:25.253Z,73.60
2018-12-22T10:10:52.900Z,73.80
2018-12-22T10:13:20.596Z,74.00
2018-12-22T10:15:48.010Z,73.70
2018-12-22T10:18:15.750Z,73.20
2018-12-22T10:27:40.189Z,70.50
2018-12-22T10:30:11.497Z,69.10
2018-12-22T10:32:38.963Z,68.80
2018-12-22T10:35:10.009Z,68.00
2018-12-22T10:37:37.560Z,69.60
2018-12-22T10:40:05.578Z,69.00
2018-12-22T10:42:33.252Z,68.60
2018-12-22T10:45:00.770Z,69.10
2018-12-22T10:47:28.350Z,67.10
2018-12-22T10:49:55.882Z,67.90
2018-12-22T10:52:23.374Z,67.30
2018-12-22T10:54:50.926Z,67.80
2018-12-22T10:57:18.532Z,67.20
2018-12-22T10:59:46.048Z,67.50
2018-12-22T11:02:13.461Z,66.50
2018-12-22T11:04:40.830Z,65.80
2018-12-22T11:07:08.274Z,66.50
2018-12-22T11:09:35.813Z,66.90
2018-12-22T11:12:03.267Z,66.90
2018-12-22T11:14:30.834Z,67.30
2018-12-22T11:16:58.315Z,67.10
2018-12-22T11:19:25.814Z,66.90
2018-12-22T11:21:53.333Z,67.40
2018-12-22T11:24:20.968Z,66.90
2018-12-22T11:26:48.383Z,67.50
2018-12-22T11:29:15.938Z,66.90
2018-12-22T11:31:43.464Z,67.70
2018-12-22T11:34:10.973Z,67.80
2018-12-22T11:36:38.510Z,67.60
2018-12-22T11:39:07.050Z,68.00
2018-12-22T11:41:34.983Z,68.30
2018-12-22T11:44:02.797Z,68.10
2018-12-22T11:46:31.659Z,68.50
2018-12-22T11:49:05.653Z,68.10
2018-12-22T11:51:33.396Z,67.90
2018-12-22T11:54:00.914Z,67.60
2018-12-22T11:56:28.464Z,68.50
2018-12-22T11:58:56.034Z,68.90
2018-12-22T12:01:23.432Z,68.40
2018-12-22T12:03:50.913Z,68.60
2018-12-22T12:06:18.774Z,68.70
2018-12-22T12:08:46.288Z,68.30
2018-12-22T12:11:13.854Z,68.30
2018-12-22T12:13:41.486Z,68.60
2018-12-22T12:16:50.622Z,68.40
2018-12-22T12:19:21.675Z,68.30
2018-12-22T12:21:49.202Z,68.20
2018-12-22T12:24:16.848Z,68.20
2018-12-22T12:26:44.370Z,68.00
2018-12-22T12:29:12.044Z,67.60
2018-12-22T12:31:39.706Z,67.00
2018-12-22T12:34:07.248Z,66.90
2018-12-22T12:36:34.724Z,67.10
2018-12-22T12:39:02.869Z,67.30
2018-12-22T12:41:31.409Z,67.60
2018-12-22T12:43:59.050Z,67.80
2018-12-22T12:46:38.268Z,67.90
2018-12-22T12:49:05.739Z,67.80
2018-12-22T12:51:34.060Z,67.10
2018-12-22T12:54:01.575Z,67.90
2018-12-22T12:56:29.518Z,67.50
2018-12-22T12:58:57.014Z,67.90
2018-12-22T13:01:24.637Z,68.90
2018-12-22T13:03:52.083Z,69.10
2018-12-22T13:06:19.522Z,69.30
2018-12-22T13:08:46.956Z,68.30
2018-12-22T13:11:14.516Z,68.60
2018-12-22T13:13:46.504Z,68.20
2018-12-22T13:16:14.071Z,68.80
2018-12-22T13:18:41.639Z,68.20
2018-12-22T13:21:09.720Z,68.20
2018-12-22T13:23:37.225Z,67.10
2018-12-22T13:26:04.800Z,67.10
2018-12-22T13:28:32.320Z,67.00
2018-12-22T13:30:59.879Z,68.40
2018-12-22T13:33:27.524Z,68.50
2018-12-22T13:35:55.020Z,70.20
2018-12-22T13:38:22.889Z,69.80
2018-12-22T13:40:50.266Z,70.60
2018-12-22T13:43:17.925Z,71.20
2018-12-22T13:45:45.414Z,71.80
2018-12-22T13:48:20.286Z,71.70
2018-12-22T13:50:48.045Z,72.00
2018-12-22T13:53:15.875Z,72.40
2018-12-22T13:55:43.448Z,71.40
2018-12-22T13:58:11.001Z,71.10
2018-12-22T14:00:41.730Z,71.10
2018-12-22T14:03:11.843Z,70.90
2018-12-22T14:05:39.423Z,70.60
2018-12-22T14:08:07.042Z,70.10
2018-12-22T14:10:34.539Z,69.60
2018-12-22T14:13:02.134Z,69.80
2018-12-22T14:15:29.917Z,69.70
2018-12-22T14:19:21.213Z,70.10
2018-12-22T14:21:49.392Z,69.80
2018-12-22T14:24:43.648Z,70.70
2018-12-22T14:27:11.139Z,70.20
2018-12-22T14:29:38.837Z,70.20
2018-12-22T14:32:06.345Z,70.50
2018-12-22T14:34:38.961Z,70.50
2018-12-22T14:37:06.454Z,70.80
2018-12-22T14:39:33.948Z,71.20
2018-12-22T14:42:01.353Z,71.50
2018-12-22T14:44:28.993Z,72.00
2018-12-22T14:46:56.435Z,72.80
2018-12-22T14:49:23.859Z,73.60
2018-12-22T14:51:52.421Z,74.20
2018-12-22T14:54:19.871Z,74.70
2018-12-22T14:56:47.310Z,75.00
2018-12-22T14:59:18.185Z,75.10
2018-12-22T15:01:49.739Z,75.50
2018-12-22T15:04:17.281Z,75.20
2018-12-22T15:06:44.819Z,75.00
2018-12-22T15:09:13.348Z,75.20
2018-12-22T15:11:41.203Z,75.10
2018-12-22T15:14:08.779Z,74.90
2018-12-22T15:16:36.224Z,74.80
2018-12-22T15:19:03.872Z,75.00
2018-12-22T15:21:31.347Z,74.90
2018-12-22T15:23:59.029Z,74.30
2018-12-22T15:26:26.564Z,74.40
2018-12-22T15:28:54.139Z,74.50
2018-12-22T15:31:21.675Z,74.20
2018-12-22T15:33:49.314Z,73.90
2018-12-22T15:36:17.001Z,73.70
2018-12-22T15:38:44.505Z,73.70
2018-12-22T15:41:12.042Z,73.40
2018-12-22T15:43:39.685Z,73.40
2018-12-22T15:46:07.173Z,73.60
2018-12-22T15:48:44.275Z,73.30
2018-12-22T15:51:13.579Z,73.30
2018-12-22T15:53:41.178Z,73.70
2018-12-22T15:56:08.592Z,73.70
2018-12-22T15:58:36.238Z,73.50
2018-12-22T16:01:03.845Z,73.50
2018-12-22T16:03:31.458Z,74.50
2018-12-22T16:05:58.925Z,73.70
2018-12-22T16:08:26.460Z,74.20
2018-12-22T16:10:53.926Z,74.20
2018-12-22T16:13:21.436Z,74.00
2018-12-22T16:15:49.118Z,74.20
2018-12-22T16:18:16.811Z,73.70
2018-12-22T16:20:44.258Z,73.80
2018-12-22T16:23:11.919Z,73.70
2018-12-22T16:25:39.426Z,73.50
2018-12-22T16:28:10.635Z,74.00
2018-12-22T16:30:43.556Z,72.90
2018-12-22T16:33:11.014Z,73.30
2018-12-22T16:35:38.714Z,73.60
2018-12-22T16:38:06.579Z,73.30
2018-12-22T16:40:34.216Z,72.80
2018-12-22T16:43:02.836Z,71.50
2018-12-22T16:45:30.375Z,71.60
2018-12-22T16:47:57.880Z,70.70
2018-12-22T16:50:26.173Z,71.20
2018-12-22T16:52:53.755Z,71.60
2018-12-22T16:55:21.363Z,71.30
2018-12-22T16:57:59.973Z,70.30
2018-12-22T17:00:29.504Z,70.50
2018-12-22T17:03:00.270Z,70.80
2018-12-22T17:05:27.834Z,70.30
2018-12-22T17:07:55.487Z,69.90
2018-12-22T17:10:24.454Z,70.30
2018-12-22T17:12:52.076Z,68.90
2018-12-22T17:15:22.496Z,69.60
2018-12-22T17:17:49.041Z,69.30
2018-12-22T17:20:16.766Z,70.10
2018-12-22T17:22:57.565Z,69.80
2018-12-22T17:25:39.011Z,70.30
2018-12-22T17:28:06.487Z,70.70
2018-12-22T17:30:34.071Z,69.80
2018-12-22T17:33:01.564Z,70.70
2018-12-22T17:35:29.131Z,71.00
2018-12-22T17:37:56.661Z,70.80
2018-12-22T17:40:24.085Z,70.30
2018-12-22T17:42:51.521Z,69.30
2018-12-22T17:45:19.040Z,69.50
2018-12-22T17:47:46.469Z,68.80
2018-12-22T17:50:14.019Z,67.90
2018-12-22T17:52:41.580Z,67.80
2018-12-22T17:55:09.923Z,68.40
2018-12-22T17:57:37.387Z,68.00
2018-12-22T18:00:06.340Z,67.90
2018-12-22T18:02:35.150Z,67.40
2018-12-22T18:05:02.779Z,67.70
2018-12-22T18:07:30.362Z,67.60
2018-12-22T18:09:57.796Z,67.20
2018-12-22T18:12:25.350Z,67.00
2018-12-22T18:14:52.835Z,67.40
2018-12-22T18:17:20.389Z,67.30
2018-12-22T18:19:47.922Z,67.30
2018-12-22T18:22:15.449Z,67.40
2018-12-22T18:24:43.023Z,67.50
2018-12-22T18:27:10.576Z,68.00
2018-12-22T18:29:38.089Z,68.30
2018-12-22T18:32:05.702Z,68.50
2018-12-22T18:34:34.258Z,68.30
2018-12-22T18:37:01.783Z,68.50
2018-12-22T18:39:29.411Z,69.00
2018-12-22T18:41:56.908Z,69.10
2018-12-22T18:44:24.388Z,69.50
2018-12-22T18:46:51.852Z,69.70
2018-12-22T18:49:19.386Z,69.60
2018-12-22T18:51:46.862Z,69.80
2018-12-22T18:54:14.710Z,69.70
2018-12-22T18:56:42.210Z,69.60
2018-12-22T18:59:09.651Z,69.80
2018-12-22T19:01:37.180Z,69.80
2018-12-22T19:04:04.638Z,70.20
2018-12-22T19:06:32.276Z,70.10
2018-12-22T19:09:01.095Z,70.00
2018-12-22T19:11:28.727Z,69.80
2018-12-22T19:13:56.157Z,69.40
2018-12-22T19:16:23.617Z,69.60
2018-12-22T19:18:51.106Z,69.70
2018-12-22T19:21:18.579Z,70.10
2018-12-22T19:23:46.138Z,69.90
2018-12-22T19:26:13.702Z,70.00
2018-12-22T19:28:41.165Z,70.30
2018-12-22T19:31:08.621Z,70.30
2018-12-22T19:33:36.210Z,70.20
2018-12-22T19:36:03.729Z,70.30
2018-12-22T19:38:31.356Z,70.60
2018-12-22T19:40:58.834Z,70.70
2018-12-22T19:43:26.317Z,71.20
2018-12-22T19:45:54.893Z,71.60
2018-12-22T19:48:22.531Z,72.30
2018-12-22T19:50:49.990Z,74.80
2018-12-22T19:53:17.484Z,77.90
2018-12-22T19:55:44.942Z,79.10
2018-12-22T19:58:12.498Z,80.10
2018-12-22T20:00:40.032Z,80.90
2018-12-22T20:03:07.622Z,82.00
2018-12-22T20:05:35.278Z,82.40
2018-12-22T20:08:02.868Z,83.20
2018-12-22T20:10:30.438Z,83.20
2018-12-22T20:12:58.067Z,82.90
2018-12-22T20:15:25.490Z,82.90
2018-12-22T20:17:52.994Z,83.50
2018-12-22T20:20:20.763Z,83.80
2018-12-22T20:22:48.188Z,84.20
2018-12-22T20:25:15.639Z,84.50
2018-12-22T20:27:43.163Z,84.80
2018-12-22T20:30:10.766Z,85.20
2018-12-22T20:32:38.233Z,85.40
2018-12-22T20:35:05.815Z,84.80
2018-12-22T20:37:33.380Z,84.50
2018-12-22T20:40:00.798Z,83.80
2018-12-22T20:42:28.277Z,83.80
2018-12-22T20:44:55.649Z,82.90
2018-12-22T20:47:23.126Z,83.50
2018-12-22T20:49:50.610Z,83.60
2018-12-22T20:52:18.090Z,83.50
2018-12-22T20:54:45.643Z,83.60
2018-12-22T20:57:13.190Z,85.00
2018-12-22T20:59:40.736Z,86.00
2018-12-22T21:02:08.172Z,85.90
2018-12-22T21:04:35.649Z,86.30
2018-12-22T21:07:03.137Z,86.20
2018-12-22T21:09:30.591Z,85.90
2018-12-22T21:11:58.086Z,85.50
2018-12-22T21:14:25.644Z,85.30
2018-12-22T21:16:53.101Z,85.90
2018-12-22T21:19:20.667Z,85.70
2018-12-22T21:21:48.238Z,86.00
2018-12-22T21:24:16.652Z,86.30
2018-12-22T21:26:44.074Z,86.20
2018-12-22T21:29:11.647Z,86.20
2018-12-22T21:31:39.292Z,86.60
2018-12-22T21:34:06.858Z,86.00
2018-12-22T21:36:34.473Z,87.00
2018-12-22T21:39:02.679Z,87.90
2018-12-22T21:41:32.260Z,87.30
2018-12-22T21:43:59.768Z,87.40
2018-12-22T21:46:27.276Z,87.60
2018-12-22T21:48:54.908Z,88.00
2018-12-22T21:51:22.486Z,87.90
2018-12-22T21:53:50.118Z,88.00
2018-12-22T21:56:17.707Z,88.00
2018-12-22T21:58:45.316Z,87.90
2018-12-22T22:01:12.812Z,87.90
2018-12-22T22:03:40.322Z,88.00
2018-12-22T22:06:07.869Z,87.60
2018-12-22T22:08:35.593Z,87.80
2018-12-22T22:11:03.132Z,88.50
2018-12-22T22:13:30.803Z,87.50
2018-12-22T22:15:58.301Z,87.60
2018-12-22T22:18:26.019Z,88.30
2018-12-22T22:20:53.638Z,87.40
2018-12-22T22:23:21.184Z,87.30
2018-12-22T22:25:48.707Z,87.30
2018-12-22T22:28:16.252Z,87.30
2018-12-22T22:30:43.923Z,87.20
2018-12-22T22:33:11.503Z,87.20
2018-12-22T22:35:39.034Z,86.40
2018-12-22T22:38:06.742Z,86.10
2018-12-22T22:40:34.272Z,86.00
2018-12-22T22:43:01.855Z,85.60
2018-12-22T22:45:29.547Z,85.60
2018-12-22T22:47:57.253Z,84.90
2018-12-22T22:50:24.806Z,84.90
2018-12-22T22:52:52.223Z,84.40
2018-12-22T22:55:19.759Z,84.20
2018-12-22T22:57:47.252Z,84.20
2018-12-22T23:00:20.223Z,83.90
2018-12-22T23:02:48.443Z,83.30
2018-12-22T23:05:16.061Z,83.20
2018-12-22T23:07:43.725Z,83.30
2018-12-22T23:10:11.314Z,84.40
2018-12-22T23:12:38.796Z,83.50
2018-12-22T23:15:06.603Z,83.80
2018-12-22T23:17:34.099Z,83.40
2018-12-22T23:20:01.661Z,83.60
2018-12-22T23:22:29.131Z,83.80
2018-12-22T23:24:56.767Z,83.80
2018-12-22T23:27:24.395Z,84.10
2018-12-22T23:29:51.880Z,84.40
2018-12-22T23:32:19.350Z,84.70
2018-12-22T23:34:46.828Z,84.80
2018-12-22T23:37:14.328Z,85.00
2018-12-22T23:39:42.006Z,85.20
2018-12-22T23:42:09.540Z,85.70
2018-12-22T23:44:37.003Z,85.70
2018-12-22T23:47:04.479Z,86.10
2018-12-22T23:49:31.990Z,86.20
2018-12-22T23:51:59.514Z,86.10
2018-12-22T23:54:26.893Z,86.50
2018-12-22T23:56:54.351Z,86.60
2018-12-22T23:59:21.904Z,86.70
